createdAt,value
2019-03-19T00:00:22.367Z,1012.70
2019-03-19T00:01:22.366Z,1012.69
2019-03-19T00:02:22.346Z,1012.72
2019-03-19T00:03:22.336Z,1012.75
2019-03-19T00:04:22.347Z,1012.83
2019-03-19T00:05:22.312Z,1012.77
2019-03-19T00:06:22.304Z,1012.75
2019-03-19T00:07:22.287Z,1012.76
2019-03-19T00:08:22.287Z,1012.83
2019-03-19T00:09:22.268Z,1012.84
2019-03-19T00:10:22.255Z,1012.81
2019-03-19T00:11:22.255Z,1012.83
2019-03-19T00:12:22.236Z,1012.85
2019-03-19T00:13:22.225Z,1012.88
2019-03-19T00:14:22.210Z,1012.92
2019-03-19T00:15:22.207Z,1012.89
2019-03-19T00:16:22.224Z,1012.90
2019-03-19T00:17:22.179Z,1012.91
2019-03-19T00:18:22.167Z,1012.95
2019-03-19T00:19:22.606Z,1012.96
2019-03-19T00:20:22.149Z,1012.99
2019-03-19T00:21:22.150Z,1012.96
2019-03-19T00:22:22.140Z,1012.94
2019-03-19T00:23:22.116Z,1012.97
2019-03-19T00:24:22.099Z,1013.03
2019-03-19T00:25:29.904Z,1012.99
2019-03-19T00:26:23.111Z,1012.98
2019-03-19T00:27:22.082Z,1013.03
2019-03-19T00:28:22.061Z,1013.01
2019-03-19T00:29:22.050Z,1013.00
2019-03-19T00:30:22.036Z,1013.00
2019-03-19T00:31:22.027Z,1013.04
2019-03-19T00:32:22.023Z,1013.02
2019-03-19T00:33:22.038Z,1012.98
2019-03-19T00:34:21.994Z,1013.02
2019-03-19T00:35:21.980Z,1012.99
2019-03-19T00:36:21.970Z,1013.02
2019-03-19T00:37:21.963Z,1013.01
2019-03-19T00:38:21.954Z,1013.04
2019-03-19T00:39:21.945Z,1013.07
2019-03-19T00:40:21.935Z,1013.02
2019-03-19T00:41:21.913Z,1013.01
2019-03-19T00:42:21.902Z,1013.03
2019-03-19T00:43:21.896Z,1012.96
2019-03-19T00:44:21.989Z,1013.02
2019-03-19T00:45:21.872Z,1013.04
2019-03-19T00:46:21.865Z,1013.09
2019-03-19T00:47:21.852Z,1013.02
2019-03-19T00:48:21.844Z,1013.03
2019-03-19T00:49:21.829Z,1013.08
2019-03-19T00:50:21.836Z,1013.01
2019-03-19T00:51:21.812Z,1013.00
2019-03-19T00:52:21.806Z,1012.99
2019-03-19T00:53:21.791Z,1013.04
2019-03-19T00:54:21.787Z,1013.03
2019-03-19T00:55:21.767Z,1013.08
2019-03-19T00:56:21.761Z,1013.02
2019-03-19T00:57:21.741Z,1013.02
2019-03-19T00:58:21.736Z,1013.03
2019-03-19T00:59:21.716Z,1012.97
2019-03-19T01:00:21.717Z,1013.01
2019-03-19T01:01:21.703Z,1013.00
2019-03-19T01:02:21.682Z,1013.05
2019-03-19T01:03:21.689Z,1013.06
2019-03-19T01:04:21.667Z,1013.09
2019-03-19T01:05:21.692Z,1013.08
2019-03-19T01:06:21.644Z,1013.08
2019-03-19T01:07:21.636Z,1013.11
2019-03-19T01:08:21.618Z,1013.14
2019-03-19T01:09:21.613Z,1013.08
2019-03-19T01:10:21.603Z,1013.06
2019-03-19T01:11:21.603Z,1013.04
2019-03-19T01:12:21.574Z,1013.10
2019-03-19T01:13:21.567Z,1013.05
2019-03-19T01:14:21.558Z,1013.07
2019-03-19T01:15:21.546Z,1013.04
2019-03-19T01:16:21.555Z,1013.10
2019-03-19T01:17:21.525Z,1013.08
2019-03-19T01:18:21.527Z,1013.04
2019-03-19T01:19:21.507Z,1013.04
2019-03-19T01:20:21.494Z,1013.01
2019-03-19T01:21:21.487Z,1013.06
2019-03-19T01:22:21.491Z,1013.07
2019-03-19T01:23:21.454Z,1013.08
2019-03-19T01:24:21.443Z,1013.12
2019-03-19T01:25:21.445Z,1013.09
2019-03-19T01:26:21.425Z,1013.11
2019-03-19T01:27:21.425Z,1013.09
2019-03-19T01:28:21.404Z,1013.12
2019-03-19T01:29:21.395Z,1013.15
2019-03-19T01:30:21.380Z,1013.14
2019-03-19T01:31:21.370Z,1013.19
2019-03-19T01:32:21.353Z,1013.21
2019-03-19T01:33:21.364Z,1013.24
2019-03-19T01:34:21.334Z,1013.19
2019-03-19T01:35:21.326Z,1013.22
2019-03-19T01:36:21.314Z,1013.17
2019-03-19T01:37:21.305Z,1013.24
2019-03-19T01:38:21.360Z,1013.24
2019-03-19T01:39:21.286Z,1013.28
2019-03-19T01:40:21.274Z,1013.25
2019-03-19T01:41:21.258Z,1013.22
2019-03-19T01:42:21.252Z,1013.28
2019-03-19T01:43:21.233Z,1013.29
2019-03-19T01:44:21.228Z,1013.32
2019-03-19T01:45:21.216Z,1013.40
2019-03-19T01:46:21.206Z,1013.36
2019-03-19T01:47:21.190Z,1013.39
2019-03-19T01:48:21.179Z,1013.37
2019-03-19T01:49:21.184Z,1013.40
2019-03-19T01:50:21.158Z,1013.42
2019-03-19T01:51:21.155Z,1013.42
2019-03-19T01:52:21.136Z,1013.41
2019-03-19T01:53:21.130Z,1013.40
2019-03-19T01:54:21.157Z,1013.46
2019-03-19T01:55:21.105Z,1013.54
2019-03-19T01:56:21.099Z,1013.50
2019-03-19T01:57:21.085Z,1013.50
2019-03-19T01:58:21.070Z,1013.56
2019-03-19T01:59:21.068Z,1013.49
2019-03-19T02:00:21.066Z,1013.49
2019-03-19T02:01:21.037Z,1013.53
2019-03-19T02:02:21.033Z,1013.50
2019-03-19T02:03:21.022Z,1013.52
2019-03-19T02:04:21.005Z,1013.44
2019-03-19T02:05:21.003Z,1013.49
2019-03-19T02:06:20.982Z,1013.54
2019-03-19T02:07:20.971Z,1013.52
2019-03-19T02:08:20.972Z,1013.57
2019-03-19T02:09:20.949Z,1013.52
2019-03-19T02:10:21.051Z,1013.53
2019-03-19T02:11:20.928Z,1013.56
2019-03-19T02:12:20.916Z,1013.60
2019-03-19T02:13:20.911Z,1013.55
2019-03-19T02:14:20.900Z,1013.58
2019-03-19T02:15:20.891Z,1013.59
2019-03-19T02:16:20.924Z,1013.61
2019-03-19T02:17:20.881Z,1013.58
2019-03-19T02:18:20.856Z,1013.61
2019-03-19T02:19:20.846Z,1013.65
2019-03-19T02:20:20.830Z,1013.69
2019-03-19T02:21:20.821Z,1013.69
2019-03-19T02:22:20.811Z,1013.72
2019-03-19T02:23:20.800Z,1013.76
2019-03-19T02:24:20.791Z,1013.76
2019-03-19T02:25:20.777Z,1013.77
2019-03-19T02:26:20.804Z,1013.67
2019-03-19T02:27:20.813Z,1013.79
2019-03-19T02:28:20.756Z,1013.79
2019-03-19T02:29:20.735Z,1013.81
2019-03-19T02:30:20.744Z,1013.80
2019-03-19T02:31:20.715Z,1013.87
2019-03-19T02:32:20.721Z,1013.92
2019-03-19T02:33:20.708Z,1013.90
2019-03-19T02:34:20.684Z,1013.91
2019-03-19T02:35:20.681Z,1013.91
2019-03-19T02:36:20.658Z,1013.91
2019-03-19T02:37:20.651Z,1013.92
2019-03-19T02:38:20.657Z,1013.95
2019-03-19T02:39:20.659Z,1013.87
2019-03-19T02:40:20.624Z,1013.93
2019-03-19T02:41:20.601Z,1013.98
2019-03-19T02:42:20.601Z,1013.99
2019-03-19T02:43:22.788Z,1013.98
2019-03-19T02:44:22.556Z,1014.04
2019-03-19T02:45:20.556Z,1013.99
2019-03-19T02:46:20.556Z,1014.02
2019-03-19T02:47:20.535Z,1013.99
2019-03-19T02:48:20.532Z,1013.98
2019-03-19T02:49:20.534Z,1013.98
2019-03-19T02:50:20.511Z,1013.97
2019-03-19T02:51:20.513Z,1013.87
2019-03-19T02:52:20.482Z,1013.92
2019-03-19T02:53:20.480Z,1013.90
2019-03-19T02:54:20.460Z,1013.88
2019-03-19T02:55:20.453Z,1013.89
2019-03-19T02:56:31.985Z,1013.96
2019-03-19T02:57:21.422Z,1013.99
2019-03-19T02:58:20.411Z,1013.96
2019-03-19T02:59:20.409Z,1014.01
2019-03-19T03:00:20.395Z,1013.99
2019-03-19T03:01:20.386Z,1014.01
2019-03-19T03:02:20.369Z,1014.00
2019-03-19T03:03:20.358Z,1014.06
2019-03-19T03:04:20.346Z,1014.06
2019-03-19T03:05:20.353Z,1014.06
2019-03-19T03:06:20.329Z,1014.10
2019-03-19T03:07:20.313Z,1014.12
2019-03-19T03:08:20.304Z,1014.13
2019-03-19T03:09:20.297Z,1014.15
2019-03-19T03:10:20.315Z,1014.10
2019-03-19T03:11:20.278Z,1014.18
2019-03-19T03:12:20.261Z,1014.15
2019-03-19T03:13:20.248Z,1014.17
2019-03-19T03:14:20.242Z,1014.16
2019-03-19T03:15:20.228Z,1014.16
2019-03-19T03:16:20.241Z,1014.18
2019-03-19T03:17:20.210Z,1014.21
2019-03-19T03:18:20.197Z,1014.19
2019-03-19T03:19:20.188Z,1014.16
2019-03-19T03:20:20.175Z,1014.20
2019-03-19T03:21:20.211Z,1014.29
2019-03-19T03:22:20.156Z,1014.25
2019-03-19T03:23:20.141Z,1014.29
2019-03-19T03:24:20.132Z,1014.25
2019-03-19T03:25:20.124Z,1014.27
2019-03-19T03:26:20.108Z,1014.27
2019-03-19T03:27:20.104Z,1014.29
2019-03-19T03:28:20.090Z,1014.27
2019-03-19T03:29:20.095Z,1014.33
2019-03-19T03:30:20.197Z,1014.36
2019-03-19T03:31:20.086Z,1014.29
2019-03-19T03:32:20.105Z,1014.30
2019-03-19T03:33:20.031Z,1014.27
2019-03-19T03:34:20.058Z,1014.30
2019-03-19T03:35:20.039Z,1014.32
2019-03-19T03:36:20.005Z,1014.33
2019-03-19T03:37:19.989Z,1014.31
2019-03-19T03:38:19.981Z,1014.34
2019-03-19T03:39:19.985Z,1014.39
2019-03-19T03:40:19.976Z,1014.37
2019-03-19T03:41:19.950Z,1014.39
2019-03-19T03:42:19.938Z,1014.40
2019-03-19T03:43:19.933Z,1014.39
2019-03-19T03:44:19.995Z,1014.45
2019-03-19T03:45:19.910Z,1014.39
2019-03-19T03:46:19.893Z,1014.44
2019-03-19T03:47:19.888Z,1014.43
2019-03-19T03:48:19.881Z,1014.49
2019-03-19T03:49:19.865Z,1014.49
2019-03-19T03:50:19.847Z,1014.52
2019-03-19T03:51:19.842Z,1014.61
2019-03-19T03:52:19.852Z,1014.65
2019-03-19T03:53:19.824Z,1014.65
2019-03-19T03:54:19.800Z,1014.73
2019-03-19T03:55:19.955Z,1014.69
2019-03-19T03:56:19.780Z,1014.74
2019-03-19T03:57:19.770Z,1014.74
2019-03-19T03:58:19.770Z,1014.76
2019-03-19T03:59:19.765Z,1014.77
2019-03-19T04:00:20.629Z,1014.81
2019-03-19T04:01:19.724Z,1014.76
2019-03-19T04:02:19.717Z,1014.73
2019-03-19T04:03:19.710Z,1014.76
2019-03-19T04:04:19.734Z,1014.81
2019-03-19T04:05:19.700Z,1014.84
2019-03-19T04:06:19.674Z,1014.79
2019-03-19T04:07:19.667Z,1014.84
2019-03-19T04:08:19.654Z,1014.86
2019-03-19T04:09:19.635Z,1014.87
2019-03-19T04:10:19.661Z,1014.88
2019-03-19T04:11:19.621Z,1014.90
2019-03-19T04:12:19.604Z,1014.92
2019-03-19T04:13:19.592Z,1014.98
2019-03-19T04:14:19.603Z,1014.99
2019-03-19T04:15:19.633Z,1014.98
2019-03-19T04:16:19.565Z,1014.99
2019-03-19T04:17:19.558Z,1015.02
2019-03-19T04:18:19.547Z,1015.03
2019-03-19T04:19:19.529Z,1015.11
2019-03-19T04:20:19.516Z,1015.11
2019-03-19T04:21:19.522Z,1015.09
2019-03-19T04:22:19.500Z,1015.14
2019-03-19T04:23:19.494Z,1015.09
2019-03-19T04:24:19.475Z,1015.09
2019-03-19T04:25:19.468Z,1015.12
2019-03-19T04:26:19.460Z,1015.11
2019-03-19T04:27:19.450Z,1015.22
2019-03-19T04:28:19.457Z,1015.22
2019-03-19T04:29:19.422Z,1015.23
2019-03-19T04:30:19.411Z,1015.23
2019-03-19T04:31:19.410Z,1015.27
2019-03-19T04:32:19.405Z,1015.23
2019-03-19T04:33:19.377Z,1015.27
2019-03-19T04:34:19.370Z,1015.19
2019-03-19T04:35:19.361Z,1015.23
2019-03-19T04:36:19.386Z,1015.22
2019-03-19T04:37:19.330Z,1015.19
2019-03-19T04:38:19.319Z,1015.26
2019-03-19T04:39:19.312Z,1015.21
2019-03-19T04:40:19.297Z,1015.18
2019-03-19T04:41:19.310Z,1015.20
2019-03-19T04:42:19.284Z,1015.20
2019-03-19T04:43:19.271Z,1015.19
2019-03-19T04:44:19.254Z,1015.22
2019-03-19T04:45:19.251Z,1015.23
2019-03-19T04:46:19.236Z,1015.27
2019-03-19T04:47:19.233Z,1015.22
2019-03-19T04:48:19.216Z,1015.24
2019-03-19T04:49:19.200Z,1015.29
2019-03-19T04:50:19.193Z,1015.26
2019-03-19T04:51:19.183Z,1015.29
2019-03-19T04:52:19.180Z,1015.28
2019-03-19T04:53:19.158Z,1015.35
2019-03-19T04:54:19.148Z,1015.38
2019-03-19T04:55:19.134Z,1015.34
2019-03-19T04:56:19.131Z,1015.43
2019-03-19T04:57:26.838Z,1015.42
2019-03-19T04:58:20.129Z,1015.43
2019-03-19T04:59:19.094Z,1015.42
2019-03-19T05:00:19.089Z,1015.45
2019-03-19T05:01:19.071Z,1015.46
2019-03-19T05:02:19.055Z,1015.43
2019-03-19T05:03:19.062Z,1015.52
2019-03-19T05:04:19.049Z,1015.50
2019-03-19T05:05:19.023Z,1015.54
2019-03-19T05:06:19.021Z,1015.61
2019-03-19T05:07:19.007Z,1015.61
2019-03-19T05:08:19.013Z,1015.66
2019-03-19T05:09:18.986Z,1015.65
2019-03-19T05:10:18.970Z,1015.62
2019-03-19T05:11:18.961Z,1015.62
2019-03-19T05:12:18.953Z,1015.57
2019-03-19T05:13:18.946Z,1015.70
2019-03-19T05:14:18.937Z,1015.69
2019-03-19T05:15:18.925Z,1015.75
2019-03-19T05:16:18.911Z,1015.73
2019-03-19T05:17:18.898Z,1015.73
2019-03-19T05:18:18.922Z,1015.76
2019-03-19T05:19:18.877Z,1015.84
2019-03-19T05:20:18.866Z,1015.80
2019-03-19T05:21:18.853Z,1015.81
2019-03-19T05:22:18.852Z,1015.83
2019-03-19T05:23:18.827Z,1015.85
2019-03-19T05:24:18.937Z,1015.80
2019-03-19T05:25:18.818Z,1015.82
2019-03-19T05:26:18.799Z,1015.88
2019-03-19T05:27:18.818Z,1015.89
2019-03-19T05:28:18.773Z,1015.89
2019-03-19T05:29:18.773Z,1015.92
2019-03-19T05:30:18.773Z,1015.90
2019-03-19T05:31:18.747Z,1015.93
2019-03-19T05:32:18.729Z,1015.89
2019-03-19T05:33:19.620Z,1015.96
2019-03-19T05:34:18.830Z,1015.96
2019-03-19T05:35:18.702Z,1016.00
2019-03-19T05:36:18.684Z,1016.01
2019-03-19T05:37:18.678Z,1016.04
2019-03-19T05:38:18.672Z,1015.98
2019-03-19T05:39:18.660Z,1015.97
2019-03-19T05:40:18.685Z,1015.98
2019-03-19T05:41:18.630Z,1015.95
2019-03-19T05:42:18.627Z,1015.99
2019-03-19T05:43:18.610Z,1016.00
2019-03-19T05:44:18.605Z,1015.98
2019-03-19T05:45:18.607Z,1016.04
2019-03-19T05:46:18.580Z,1016.00
2019-03-19T05:47:18.569Z,1016.04
2019-03-19T05:48:18.568Z,1016.06
2019-03-19T05:49:18.549Z,1016.16
2019-03-19T05:50:18.575Z,1016.11
2019-03-19T05:51:18.535Z,1016.18
2019-03-19T05:52:18.509Z,1016.12
2019-03-19T05:53:18.498Z,1016.14
2019-03-19T05:54:18.532Z,1016.17
2019-03-19T05:55:18.497Z,1016.29
2019-03-19T05:56:18.492Z,1016.25
2019-03-19T05:57:18.460Z,1016.34
2019-03-19T05:58:18.450Z,1016.31
2019-03-19T05:59:18.438Z,1016.34
2019-03-19T06:00:18.438Z,1016.38
2019-03-19T06:01:18.437Z,1016.33
2019-03-19T06:02:18.400Z,1016.39
2019-03-19T06:03:18.408Z,1016.38
2019-03-19T06:04:18.383Z,1016.41
2019-03-19T06:05:20.970Z,1016.39
2019-03-19T06:06:18.363Z,1016.42
2019-03-19T06:07:18.453Z,1016.42
2019-03-19T06:08:18.340Z,1016.44
2019-03-19T06:09:18.329Z,1016.45
2019-03-19T06:10:18.319Z,1016.45
2019-03-19T06:11:18.310Z,1016.42
2019-03-19T06:12:18.303Z,1016.46
2019-03-19T06:13:18.293Z,1016.51
2019-03-19T06:14:18.268Z,1016.43
2019-03-19T06:15:18.262Z,1016.55
2019-03-19T06:16:18.265Z,1016.45
2019-03-19T06:17:18.250Z,1016.52
2019-03-19T06:18:18.235Z,1016.52
2019-03-19T06:19:18.214Z,1016.46
2019-03-19T06:20:18.215Z,1016.50
2019-03-19T06:21:18.192Z,1016.57
2019-03-19T06:22:18.187Z,1016.49
2019-03-19T06:23:18.188Z,1016.59
2019-03-19T06:24:18.160Z,1016.53
2019-03-19T06:25:18.152Z,1016.64
2019-03-19T06:26:18.141Z,1016.56
2019-03-19T06:27:18.130Z,1016.62
2019-03-19T06:28:18.154Z,1016.60
2019-03-19T06:29:18.108Z,1016.62
2019-03-19T06:30:18.101Z,1016.63
2019-03-19T06:31:18.085Z,1016.58
2019-03-19T06:32:18.069Z,1016.59
2019-03-19T06:33:18.064Z,1016.57
2019-03-19T06:34:18.060Z,1016.57
2019-03-19T06:35:18.045Z,1016.60
2019-03-19T06:36:18.032Z,1016.60
2019-03-19T06:37:18.019Z,1016.64
2019-03-19T06:38:18.006Z,1016.60
2019-03-19T06:39:18.111Z,1016.61
2019-03-19T06:40:17.986Z,1016.63
2019-03-19T06:41:17.974Z,1016.66
2019-03-19T06:42:17.969Z,1016.57
2019-03-19T06:43:17.949Z,1016.61
2019-03-19T06:44:17.943Z,1016.62
2019-03-19T06:45:17.949Z,1016.57
2019-03-19T06:46:17.926Z,1016.69
2019-03-19T06:47:17.935Z,1016.73
2019-03-19T06:48:17.899Z,1016.65
2019-03-19T06:49:17.883Z,1016.67
2019-03-19T06:50:17.888Z,1016.68
2019-03-19T06:51:17.865Z,1016.70
2019-03-19T06:52:17.859Z,1016.73
2019-03-19T06:53:17.844Z,1016.69
2019-03-19T06:54:17.829Z,1016.76
2019-03-19T06:55:17.832Z,1016.80
2019-03-19T06:56:17.812Z,1016.75
2019-03-19T06:57:17.795Z,1016.78
2019-03-19T06:58:17.785Z,1016.77
2019-03-19T06:59:17.792Z,1016.72
2019-03-19T07:00:17.869Z,1016.73
2019-03-19T07:01:17.755Z,1016.78
2019-03-19T07:02:17.763Z,1016.79
2019-03-19T07:03:17.733Z,1016.80
2019-03-19T07:04:17.721Z,1016.82
2019-03-19T07:05:17.716Z,1016.78
2019-03-19T07:06:17.709Z,1016.89
2019-03-19T07:07:17.685Z,1016.80
2019-03-19T07:08:17.692Z,1016.87
2019-03-19T07:09:17.670Z,1016.89
2019-03-19T07:10:17.677Z,1016.86
2019-03-19T07:11:17.658Z,1016.91
2019-03-19T07:12:17.637Z,1016.87
2019-03-19T07:13:17.620Z,1016.93
2019-03-19T07:14:17.609Z,1016.92
2019-03-19T07:15:17.614Z,1016.87
2019-03-19T07:16:17.621Z,1016.98
2019-03-19T07:17:17.581Z,1017.09
2019-03-19T07:18:17.565Z,1017.05
2019-03-19T07:19:17.561Z,1016.94
2019-03-19T07:20:17.553Z,1017.01
2019-03-19T07:21:17.540Z,1016.99
2019-03-19T07:22:17.532Z,1016.89
2019-03-19T07:23:17.513Z,1016.98
2019-03-19T07:24:17.496Z,1017.01
2019-03-19T07:25:17.510Z,1017.04
2019-03-19T07:26:17.475Z,1017.02
2019-03-19T07:27:17.472Z,1017.01
2019-03-19T07:28:21.912Z,1017.10
2019-03-19T07:29:18.439Z,1017.07
2019-03-19T07:30:17.428Z,1017.10
2019-03-19T07:31:17.424Z,1017.16
2019-03-19T07:32:17.450Z,1017.16
2019-03-19T07:33:17.396Z,1017.15
2019-03-19T07:34:17.386Z,1017.34
2019-03-19T07:35:17.372Z,1017.37
2019-03-19T07:36:17.362Z,1017.30
2019-03-19T07:37:17.358Z,1017.27
2019-03-19T07:38:17.367Z,1017.18
2019-03-19T07:39:17.336Z,1017.36
2019-03-19T07:40:17.317Z,1017.19
2019-03-19T07:41:17.747Z,1017.19
2019-03-19T07:42:17.295Z,1017.22
2019-03-19T07:43:17.302Z,1017.29
2019-03-19T07:44:17.285Z,1017.35
2019-03-19T07:45:17.263Z,1017.28
2019-03-19T07:46:17.253Z,1017.35
2019-03-19T07:47:17.246Z,1017.39
2019-03-19T07:48:17.263Z,1017.37
2019-03-19T07:49:17.221Z,1017.39
2019-03-19T07:50:17.211Z,1017.36
2019-03-19T07:51:17.200Z,1017.38
2019-03-19T07:52:17.188Z,1017.37
2019-03-19T07:53:17.177Z,1017.44
2019-03-19T07:54:17.204Z,1017.34
2019-03-19T07:55:17.157Z,1017.46
2019-03-19T07:56:17.147Z,1017.41
2019-03-19T07:57:17.139Z,1017.45
2019-03-19T07:58:17.117Z,1017.45
2019-03-19T07:59:17.106Z,1017.47
2019-03-19T08:00:17.105Z,1017.52
2019-03-19T08:01:17.088Z,1017.65
2019-03-19T08:02:17.080Z,1017.57
2019-03-19T08:03:17.078Z,1017.58
2019-03-19T08:04:17.054Z,1017.61
2019-03-19T08:05:17.055Z,1017.64
2019-03-19T08:06:17.034Z,1017.67
2019-03-19T08:07:17.018Z,1017.63
2019-03-19T08:08:17.009Z,1017.64
2019-03-19T08:09:17.001Z,1017.66
2019-03-19T08:10:16.985Z,1017.62
2019-03-19T08:11:16.985Z,1017.64
2019-03-19T08:12:16.965Z,1017.67
2019-03-19T08:13:16.953Z,1017.68
2019-03-19T08:14:16.962Z,1017.69
2019-03-19T08:15:16.939Z,1017.63
2019-03-19T08:16:27.091Z,1017.65
2019-03-19T08:17:17.910Z,1017.76
2019-03-19T08:18:16.902Z,1017.80
2019-03-19T08:19:16.891Z,1017.74
2019-03-19T08:20:16.888Z,1017.78
2019-03-19T08:21:16.870Z,1017.77
2019-03-19T08:22:16.862Z,1017.83
2019-03-19T08:23:16.848Z,1017.80
2019-03-19T08:24:16.834Z,1017.77
2019-03-19T08:25:16.836Z,1017.86
2019-03-19T08:26:16.823Z,1017.74
2019-03-19T08:27:16.802Z,1017.76
2019-03-19T08:28:16.790Z,1017.83
2019-03-19T08:29:16.779Z,1017.81
2019-03-19T08:30:16.773Z,1017.91
2019-03-19T08:31:16.760Z,1017.90
2019-03-19T08:32:16.756Z,1018.02
2019-03-19T08:33:16.733Z,1017.95
2019-03-19T08:34:16.718Z,1017.89
2019-03-19T08:35:16.709Z,1017.92
2019-03-19T08:36:16.710Z,1018.01
2019-03-19T08:37:16.759Z,1017.88
2019-03-19T08:38:16.712Z,1017.94
2019-03-19T08:39:16.666Z,1018.05
2019-03-19T08:40:16.652Z,1017.95
2019-03-19T08:41:16.638Z,1017.93
2019-03-19T08:42:16.637Z,1018.00
2019-03-19T08:43:16.648Z,1017.95
2019-03-19T08:44:16.606Z,1017.96
2019-03-19T08:45:16.598Z,1017.98
2019-03-19T08:46:16.588Z,1017.99
2019-03-19T08:47:16.571Z,1018.04
2019-03-19T08:48:16.563Z,1018.10
2019-03-19T08:49:16.558Z,1018.08
2019-03-19T08:50:16.551Z,1018.13
2019-03-19T08:51:16.529Z,1018.22
2019-03-19T08:52:16.522Z,1018.18
2019-03-19T08:53:16.509Z,1018.22
2019-03-19T08:54:16.508Z,1018.05
2019-03-19T08:55:16.483Z,1017.99
2019-03-19T08:56:16.479Z,1017.99
2019-03-19T08:57:16.470Z,1018.03
2019-03-19T08:58:16.453Z,1017.94
2019-03-19T08:59:16.484Z,1017.96
2019-03-19T09:00:16.436Z,1018.00
2019-03-19T09:01:16.417Z,1017.95
2019-03-19T09:02:16.407Z,1018.00
2019-03-19T09:03:16.393Z,1017.96
2019-03-19T09:04:16.381Z,1017.94
2019-03-19T09:05:16.389Z,1018.00
2019-03-19T09:06:16.364Z,1017.97
2019-03-19T09:07:16.354Z,1017.96
2019-03-19T09:08:16.343Z,1018.19
2019-03-19T09:09:16.330Z,1018.14
2019-03-19T09:10:16.334Z,1018.01
2019-03-19T09:11:16.345Z,1018.03
2019-03-19T09:12:16.297Z,1018.14
2019-03-19T09:13:16.286Z,1018.13
2019-03-19T09:14:16.276Z,1018.04
2019-03-19T09:15:16.262Z,1018.00
2019-03-19T09:16:16.248Z,1018.08
2019-03-19T09:17:16.259Z,1018.01
2019-03-19T09:18:16.269Z,1018.07
2019-03-19T09:19:16.226Z,1018.06
2019-03-19T09:20:16.213Z,1018.04
2019-03-19T09:21:16.195Z,1018.13
2019-03-19T09:22:16.201Z,1018.18
2019-03-19T09:23:16.176Z,1018.20
2019-03-19T09:24:16.200Z,1018.21
2019-03-19T09:25:16.150Z,1018.17
2019-03-19T09:26:16.159Z,1018.17
2019-03-19T09:27:16.138Z,1018.17
2019-03-19T09:28:16.132Z,1018.30
2019-03-19T09:29:17.253Z,1018.28
2019-03-19T09:30:16.098Z,1018.28
2019-03-19T09:31:16.083Z,1018.23
2019-03-19T09:32:16.087Z,1018.22
2019-03-19T09:33:16.061Z,1018.26
2019-03-19T09:34:16.058Z,1018.25
2019-03-19T09:35:16.045Z,1018.25
2019-03-19T09:36:16.029Z,1018.31
2019-03-19T09:37:16.051Z,1018.36
2019-03-19T09:38:16.006Z,1018.24
2019-03-19T09:39:16.000Z,1018.15
2019-03-19T09:40:15.982Z,1018.18
2019-03-19T09:41:15.976Z,1018.22
2019-03-19T09:42:15.962Z,1018.18
2019-03-19T09:43:15.969Z,1018.25
2019-03-19T09:44:15.941Z,1018.28
2019-03-19T09:45:15.943Z,1018.22
2019-03-19T09:46:15.917Z,1018.18
2019-03-19T09:47:15.917Z,1018.28
2019-03-19T09:48:15.893Z,1018.20
2019-03-19T09:49:15.893Z,1018.15
2019-03-19T09:50:15.872Z,1018.24
2019-03-19T09:51:15.862Z,1018.25
2019-03-19T09:52:15.862Z,1018.32
2019-03-19T09:53:15.883Z,1018.33
2019-03-19T09:54:15.837Z,1018.22
2019-03-19T09:55:15.836Z,1018.25
2019-03-19T09:56:15.802Z,1018.21
2019-03-19T09:57:15.796Z,1018.22
2019-03-19T09:58:15.787Z,1018.21
2019-03-19T09:59:15.783Z,1018.14
2019-03-19T10:00:15.762Z,1018.27
2019-03-19T10:01:15.745Z,1018.18
2019-03-19T10:02:15.735Z,1018.21
2019-03-19T10:03:15.763Z,1018.21
2019-03-19T10:04:15.713Z,1018.19
2019-03-19T10:05:15.706Z,1018.22
2019-03-19T10:06:15.690Z,1018.27
2019-03-19T10:07:15.686Z,1018.30
2019-03-19T10:08:15.671Z,1018.27
2019-03-19T10:09:15.673Z,1018.18
2019-03-19T10:10:15.649Z,1018.21
2019-03-19T10:11:15.635Z,1018.22
2019-03-19T10:12:15.651Z,1018.25
2019-03-19T10:13:15.633Z,1018.29
2019-03-19T10:14:15.604Z,1018.24
2019-03-19T10:15:15.601Z,1018.30
2019-03-19T10:16:15.577Z,1018.30
2019-03-19T10:17:15.600Z,1018.33
2019-03-19T10:18:15.563Z,1018.28
2019-03-19T10:19:15.546Z,1018.33
2019-03-19T10:20:17.700Z,1018.34
2019-03-19T10:21:15.552Z,1018.42
2019-03-19T10:22:15.518Z,1018.39
2019-03-19T10:23:15.517Z,1018.40
2019-03-19T10:24:15.490Z,1018.43
2019-03-19T10:25:15.479Z,1018.37
2019-03-19T10:26:15.472Z,1018.43
2019-03-19T10:27:15.459Z,1018.50
2019-03-19T10:28:15.498Z,1018.42
2019-03-19T10:29:15.439Z,1018.50
2019-03-19T10:30:15.426Z,1018.52
2019-03-19T10:31:15.423Z,1018.53
2019-03-19T10:32:15.418Z,1018.56
2019-03-19T10:33:16.104Z,1018.56
2019-03-19T10:34:15.413Z,1018.49
2019-03-19T10:35:15.375Z,1018.46
2019-03-19T10:36:15.367Z,1018.55
2019-03-19T10:37:15.360Z,1018.56
2019-03-19T10:38:15.350Z,1018.47
2019-03-19T10:39:15.325Z,1018.49
2019-03-19T10:40:15.324Z,1018.37
2019-03-19T10:41:15.308Z,1018.35
2019-03-19T10:42:15.323Z,1018.29
2019-03-19T10:43:15.288Z,1018.42
2019-03-19T10:44:15.266Z,1018.43
2019-03-19T10:45:15.257Z,1018.43
2019-03-19T10:46:15.249Z,1018.50
2019-03-19T10:47:15.304Z,1018.44
2019-03-19T10:48:15.257Z,1018.51
2019-03-19T10:49:15.211Z,1018.46
2019-03-19T10:50:15.199Z,1018.34
2019-03-19T10:51:15.197Z,1018.39
2019-03-19T10:52:15.182Z,1018.43
2019-03-19T10:53:15.208Z,1018.48
2019-03-19T10:54:15.156Z,1018.45
2019-03-19T10:55:15.143Z,1018.49
2019-03-19T10:56:15.138Z,1018.53
2019-03-19T10:57:15.130Z,1018.46
2019-03-19T10:58:15.122Z,1018.53
2019-03-19T10:59:15.110Z,1018.54
2019-03-19T11:00:15.087Z,1018.49
2019-03-19T11:01:15.081Z,1018.48
2019-03-19T11:02:15.065Z,1018.48
2019-03-19T11:03:15.074Z,1018.49
2019-03-19T11:04:15.072Z,1018.45
2019-03-19T11:05:15.035Z,1018.48
2019-03-19T11:06:15.021Z,1018.50
2019-03-19T11:07:15.385Z,1018.55
2019-03-19T11:08:15.007Z,1018.52
2019-03-19T11:09:14.991Z,1018.55
2019-03-19T11:10:14.989Z,1018.56
2019-03-19T11:11:14.971Z,1018.61
2019-03-19T11:12:14.961Z,1018.58
2019-03-19T11:13:14.947Z,1018.63
2019-03-19T11:14:14.933Z,1018.56
2019-03-19T11:15:14.948Z,1018.59
2019-03-19T11:16:14.910Z,1018.59
2019-03-19T11:17:14.908Z,1018.55
2019-03-19T11:18:14.896Z,1018.51
2019-03-19T11:19:14.887Z,1018.55
2019-03-19T11:20:14.931Z,1018.54
2019-03-19T11:21:14.858Z,1018.48
2019-03-19T11:22:14.851Z,1018.48
2019-03-19T11:23:14.836Z,1018.46
2019-03-19T11:24:14.823Z,1018.48
2019-03-19T11:25:14.812Z,1018.56
2019-03-19T11:26:14.839Z,1018.52
2019-03-19T11:27:14.806Z,1018.54
2019-03-19T11:28:14.783Z,1018.48
2019-03-19T11:29:14.766Z,1018.57
2019-03-19T11:30:14.764Z,1018.61
2019-03-19T11:31:14.750Z,1018.58
2019-03-19T11:32:14.750Z,1018.60
2019-03-19T11:33:14.720Z,1018.49
2019-03-19T11:34:14.713Z,1018.55
2019-03-19T11:35:14.705Z,1018.48
2019-03-19T11:36:14.704Z,1018.53
2019-03-19T11:37:14.691Z,1018.53
2019-03-19T11:38:14.666Z,1018.56
2019-03-19T11:39:14.674Z,1018.53
2019-03-19T11:40:14.647Z,1018.58
2019-03-19T11:41:14.690Z,1018.61
2019-03-19T11:42:14.626Z,1018.58
2019-03-19T11:43:14.609Z,1018.68
2019-03-19T11:44:14.600Z,1018.55
2019-03-19T11:45:14.620Z,1018.67
2019-03-19T11:46:14.575Z,1018.67
2019-03-19T11:47:14.582Z,1018.54
2019-03-19T11:48:14.554Z,1018.53
2019-03-19T11:49:14.548Z,1018.46
2019-03-19T11:50:14.541Z,1018.52
2019-03-19T11:51:14.534Z,1018.45
2019-03-19T11:52:14.521Z,1018.47
2019-03-19T11:53:14.496Z,1018.42
2019-03-19T11:54:14.491Z,1018.47
2019-03-19T11:55:14.483Z,1018.58
2019-03-19T11:56:14.468Z,1018.55
2019-03-19T11:57:14.506Z,1018.65
2019-03-19T11:58:14.447Z,1018.60
2019-03-19T11:59:14.446Z,1018.70
2019-03-19T12:00:14.418Z,1018.76
2019-03-19T12:01:14.409Z,1018.73
2019-03-19T12:02:25.345Z,1018.79
2019-03-19T12:03:16.609Z,1018.71
2019-03-19T12:04:14.381Z,1018.68
2019-03-19T12:05:14.370Z,1018.66